Time;durP1;ratioP1;P1;durP2;ratioP2;P2;SDS_P1;SDS_P2;PMS_P1;PMS_P2;Temp;Humidity;BMP_temperature;BMP_pressure;BME280_temperature;BME280_humidity;BME280_pressure;Samples;Min_cycle;Max_cycle;Signal;HPM_P1;HPM_P2
2021/04/24 00:00:36;;;;;;;;;;;11.70;44.70;;;;;;5034213;28;20370;-74
2021/04/24 00:03:02;;;;;;;;;;;11.70;44.80;;;;;;5034476;28;19921;-75
2021/04/24 00:05:31;;;;;;;;;;;11.70;45.00;;;;;;5041484;28;20325;-75
2021/04/24 00:07:58;;;;;;;;;;;11.70;45.00;;;;;;5041067;28;19921;-75
2021/04/24 00:10:25;;;;;;;;;;;11.70;45.10;;;;;;5034264;28;19921;-75
2021/04/24 00:12:52;;;;;;;;;;;11.60;44.90;;;;;;5031117;28;20281;-75
2021/04/24 00:15:19;;;;;;;;;;;11.60;45.00;;;;;;5018854;28;19921;-75
2021/04/24 00:17:45;;;;;;;;;;;11.60;45.20;;;;;;5033795;28;19921;-75
2021/04/24 00:20:14;;;;;;;;;;;11.50;45.20;;;;;;5039669;28;19928;-75
2021/04/24 00:22:40;;;;;;;;;;;11.50;45.30;;;;;;5033483;28;19975;-75
2021/04/24 00:25:08;;;;;;;;;;;11.50;45.30;;;;;;5033217;28;19928;-74
2021/04/24 00:27:34;;;;;;;;;;;11.50;45.40;;;;;;5033704;28;19925;-75
2021/04/24 00:30:00;;;;;;;;;;;11.50;45.50;;;;;;5033200;28;19921;-74
2021/04/24 00:32:26;;;;;;;;;;;11.50;45.50;;;;;;5033604;28;19921;-74
2021/04/24 00:34:53;;;;;;;;;;;11.40;45.60;;;;;;5035408;28;19928;-74
2021/04/24 00:37:19;;;;;;;;;;;11.40;45.70;;;;;;5044153;28;19975;-74
2021/04/24 00:39:45;;;;;;;;;;;11.40;45.70;;;;;;5048930;28;19924;-75
2021/04/24 00:42:12;;;;;;;;;;;11.40;45.60;;;;;;5045682;28;19921;-74
2021/04/24 00:44:43;;;;;;;;;;;11.40;45.60;;;;;;5032584;28;19921;-74
2021/04/24 00:47:10;;;;;;;;;;;11.30;45.60;;;;;;5040081;28;19932;-74
2021/04/24 00:49:36;;;;;;;;;;;11.30;45.70;;;;;;5033782;28;19967;-74
2021/04/24 00:52:02;;;;;;;;;;;11.30;45.90;;;;;;5032898;28;19925;-74
2021/04/24 00:54:29;;;;;;;;;;;11.30;46.00;;;;;;5033418;28;19925;-74
2021/04/24 00:56:55;;;;;;;;;;;11.20;46.00;;;;;;5044108;28;19921;-74
2021/04/24 00:59:22;;;;;;;;;;;11.20;46.10;;;;;;5036326;28;19975;-74
2021/04/24 01:01:49;;;;;;;;;;;11.10;46.20;;;;;;5032666;28;19932;-78
2021/04/24 01:04:15;;;;;;;;;;;11.10;46.70;;;;;;5032842;28;20388;-77
2021/04/24 01:06:41;;;;;;;;;;;11.10;46.40;;;;;;5033657;28;19933;-77
2021/04/24 01:09:07;;;;;;;;;;;11.10;46.40;;;;;;5032746;28;19928;-77
2021/04/24 01:11:34;;;;;;;;;;;11.00;46.50;;;;;;5033537;28;19975;-78
2021/04/24 01:14:00;;;;;;;;;;;11.00;46.50;;;;;;5031462;28;19928;-76
2021/04/24 01:16:27;;;;;;;;;;;11.00;46.50;;;;;;5032631;28;20330;-76
2021/04/24 01:18:53;;;;;;;;;;;10.90;46.60;;;;;;5040038;28;19925;-76
2021/04/24 01:21:22;;;;;;;;;;;10.90;46.60;;;;;;5040357;28;19936;-76
2021/04/24 01:23:49;;;;;;;;;;;10.90;46.80;;;;;;5033171;28;19925;-76
2021/04/24 01:26:15;;;;;;;;;;;10.80;46.70;;;;;;5032697;28;19921;-76
2021/04/24 01:28:42;;;;;;;;;;;10.70;46.70;;;;;;5036044;28;19975;-77
2021/04/24 01:31:08;;;;;;;;;;;10.70;46.90;;;;;;5032216;28;19975;-76
2021/04/24 01:33:34;;;;;;;;;;;10.70;47.10;;;;;;5031339;28;19934;-76
2021/04/24 01:36:01;;;;;;;;;;;10.60;47.10;;;;;;5031802;28;19925;-75
2021/04/24 01:38:27;;;;;;;;;;;10.60;47.10;;;;;;5034312;28;20378;-75
2021/04/24 01:40:54;;;;;;;;;;;10.60;47.10;;;;;;5032230;28;19932;-75
2021/04/24 01:43:20;;;;;;;;;;;10.50;47.00;;;;;;5032643;28;19925;-75
2021/04/24 01:45:46;;;;;;;;;;;10.50;47.10;;;;;;5033022;28;19921;-76
2021/04/24 01:48:13;;;;;;;;;;;10.50;47.20;;;;;;5032018;28;19924;-75
2021/04/24 01:50:41;;;;;;;;;;;10.40;47.20;;;;;;5044117;28;19921;-75
2021/04/24 01:53:08;;;;;;;;;;;10.40;47.20;;;;;;5034369;28;19928;-75
2021/04/24 01:55:35;;;;;;;;;;;10.40;47.30;;;;;;5036958;28;19964;-75
2021/04/24 01:58:04;;;;;;;;;;;10.40;47.30;;;;;;5035815;28;19925;-75
2021/04/24 02:00:33;;;;;;;;;;;10.30;47.40;;;;;;5048429;28;20281;-76
2021/04/24 02:03:00;;;;;;;;;;;10.30;47.60;;;;;;5038972;28;20035;-75
2021/04/24 02:05:27;;;;;;;;;;;10.30;47.80;;;;;;5037172;28;19921;-76
2021/04/24 02:07:54;;;;;;;;;;;10.30;47.80;;;;;;5045425;28;19933;-75
2021/04/24 02:10:21;;;;;;;;;;;10.30;47.90;;;;;;5039741;28;19933;-75
2021/04/24 02:12:47;;;;;;;;;;;10.30;47.80;;;;;;5034905;28;19921;-75
2021/04/24 02:15:14;;;;;;;;;;;10.30;47.80;;;;;;5036842;28;19928;-73
2021/04/24 02:17:40;;;;;;;;;;;10.20;47.70;;;;;;5035734;28;19925;-73
2021/04/24 02:20:07;;;;;;;;;;;10.20;47.60;;;;;;5037739;28;19925;-74
2021/04/24 02:22:33;;;;;;;;;;;10.20;47.50;;;;;;5031377;28;19979;-74
2021/04/24 02:25:00;;;;;;;;;;;10.20;47.50;;;;;;5036674;28;19921;-75
2021/04/24 02:27:27;;;;;;;;;;;10.10;47.40;;;;;;5034599;28;20320;-75
2021/04/24 02:29:55;;;;;;;;;;;10.10;47.50;;;;;;5035474;28;20388;-75
2021/04/24 02:32:22;;;;;;;;;;;10.00;47.50;;;;;;5039258;28;19921;-73
2021/04/24 02:34:49;;;;;;;;;;;10.00;47.60;;;;;;5035755;28;19925;-74
2021/04/24 02:37:16;;;;;;;;;;;10.00;47.80;;;;;;5036288;28;19921;-74
2021/04/24 02:39:43;;;;;;;;;;;10.00;47.70;;;;;;5035057;28;20365;-73
2021/04/24 02:42:10;;;;;;;;;;;10.00;47.80;;;;;;5037668;28;19920;-73
2021/04/24 02:44:37;;;;;;;;;;;10.00;47.90;;;;;;5036258;28;19921;-73
2021/04/24 02:47:04;;;;;;;;;;;9.90;48.70;;;;;;5041246;28;19941;-73
2021/04/24 02:49:31;;;;;;;;;;;9.90;48.80;;;;;;5043107;28;19929;-74
2021/04/24 02:51:57;;;;;;;;;;;9.90;48.80;;;;;;5034001;28;19927;-74
2021/04/24 02:54:24;;;;;;;;;;;9.80;48.70;;;;;;5033751;28;19921;-74
2021/04/24 02:56:51;;;;;;;;;;;9.80;48.90;;;;;;5035887;28;19921;-73
2021/04/24 02:59:17;;;;;;;;;;;9.70;49.00;;;;;;5038433;28;19924;-73
2021/04/24 03:01:44;;;;;;;;;;;9.70;49.10;;;;;;5043786;28;19925;-74
2021/04/24 03:04:11;;;;;;;;;;;9.80;49.30;;;;;;5040318;28;19921;-73
2021/04/24 03:06:38;;;;;;;;;;;9.70;49.20;;;;;;5037252;28;19921;-73
2021/04/24 03:09:04;;;;;;;;;;;9.70;49.10;;;;;;5037046;28;19991;-74
2021/04/24 03:11:31;;;;;;;;;;;9.70;49.10;;;;;;5038873;28;19975;-73
2021/04/24 03:13:57;;;;;;;;;;;9.60;49.00;;;;;;5041203;28;19925;-73
2021/04/24 03:16:23;;;;;;;;;;;9.60;49.00;;;;;;5035117;28;19947;-73
2021/04/24 03:18:50;;;;;;;;;;;9.60;49.10;;;;;;5033163;28;19921;-74
2021/04/24 03:21:16;;;;;;;;;;;9.50;49.10;;;;;;5037557;28;19921;-74
2021/04/24 03:23:43;;;;;;;;;;;9.50;49.40;;;;;;5034861;28;19928;-74
2021/04/24 03:26:09;;;;;;;;;;;9.50;49.50;;;;;;5035114;28;19921;-73
2021/04/24 03:28:36;;;;;;;;;;;9.50;49.70;;;;;;5035004;28;19921;-73
2021/04/24 03:31:02;;;;;;;;;;;9.40;49.60;;;;;;5023280;28;19967;-73
2021/04/24 03:33:28;;;;;;;;;;;9.40;49.50;;;;;;5048771;28;19944;-75
2021/04/24 03:35:54;;;;;;;;;;;9.40;49.60;;;;;;5043125;28;19921;-75
2021/04/24 03:38:20;;;;;;;;;;;9.40;49.60;;;;;;5040839;28;19979;-75
2021/04/24 03:40:48;;;;;;;;;;;9.40;49.50;;;;;;5043271;28;19920;-76
2021/04/24 03:43:14;;;;;;;;;;;9.40;49.50;;;;;;5047593;28;19925;-76
2021/04/24 03:45:40;;;;;;;;;;;9.40;49.50;;;;;;5032504;28;19933;-75
2021/04/24 03:48:07;;;;;;;;;;;9.40;49.60;;;;;;5034110;28;20288;-77
2021/04/24 03:50:33;;;;;;;;;;;9.30;49.60;;;;;;5037911;28;19932;-76
2021/04/24 03:52:59;;;;;;;;;;;9.30;49.70;;;;;;5036988;28;19921;-76
2021/04/24 03:55:31;;;;;;;;;;;9.30;49.60;;;;;;5033962;28;19926;-80
2021/04/24 03:58:00;;;;;;;;;;;9.30;49.70;;;;;;5033912;28;19921;-76
2021/04/24 04:00:27;;;;;;;;;;;9.30;49.60;;;;;;5034863;28;19921;-75
2021/04/24 04:02:56;;;;;;;;;;;9.30;49.60;;;;;;5034460;28;19928;-75
2021/04/24 04:05:22;;;;;;;;;;;9.30;49.60;;;;;;5034617;28;20377;-75
2021/04/24 04:07:49;;;;;;;;;;;9.30;49.60;;;;;;5033313;28;19932;-76
2021/04/24 04:10:16;;;;;;;;;;;9.30;49.60;;;;;;5033992;28;19925;-75
2021/04/24 04:12:42;;;;;;;;;;;9.30;49.60;;;;;;5038283;28;20438;-75
2021/04/24 04:15:11;;;;;;;;;;;9.20;49.60;;;;;;5052757;28;19920;-75
2021/04/24 04:17:38;;;;;;;;;;;9.20;49.70;;;;;;5043350;28;20285;-75
2021/04/24 04:20:06;;;;;;;;;;;9.10;49.80;;;;;;5042632;28;19972;-75
2021/04/24 04:22:32;;;;;;;;;;;9.10;50.00;;;;;;5033646;28;19925;-75
2021/04/24 04:24:58;;;;;;;;;;;9.10;50.10;;;;;;5022246;28;19925;-75
2021/04/24 04:27:24;;;;;;;;;;;9.10;50.10;;;;;;5033869;28;20381;-75
2021/04/24 04:29:51;;;;;;;;;;;9.10;50.10;;;;;;5048216;28;19934;-75
2021/04/24 04:32:18;;;;;;;;;;;9.10;50.10;;;;;;5033075;28;19921;-77
2021/04/24 04:34:45;;;;;;;;;;;9.10;50.10;;;;;;5047037;28;19944;-76
2021/04/24 04:37:11;;;;;;;;;;;9.10;50.10;;;;;;5033524;28;19921;-76
2021/04/24 04:39:37;;;;;;;;;;;9.10;50.10;;;;;;5047603;28;19921;-76
2021/04/24 04:42:04;;;;;;;;;;;9.10;50.10;;;;;;5043845;28;19951;-75
2021/04/24 04:44:30;;;;;;;;;;;9.10;50.10;;;;;;5048123;28;19921;-77
2021/04/24 04:46:56;;;;;;;;;;;9.10;50.10;;;;;;5053562;28;20353;-76
2021/04/24 04:49:23;;;;;;;;;;;9.10;50.00;;;;;;5051800;28;19971;-76
2021/04/24 04:51:50;;;;;;;;;;;9.00;50.00;;;;;;5032582;28;19921;-76
2021/04/24 04:54:17;;;;;;;;;;;9.00;50.20;;;;;;5036200;28;19921;-76
2021/04/24 04:56:43;;;;;;;;;;;9.00;50.30;;;;;;5032452;28;19924;-75
2021/04/24 04:59:09;;;;;;;;;;;9.00;50.40;;;;;;5032609;28;19921;-76
2021/04/24 05:01:35;;;;;;;;;;;9.10;50.50;;;;;;5033880;28;19944;-76
2021/04/24 05:04:02;;;;;;;;;;;9.10;50.40;;;;;;5046385;28;19921;-75
2021/04/24 05:06:29;;;;;;;;;;;9.10;50.40;;;;;;5030331;28;19921;-75
2021/04/24 05:08:55;;;;;;;;;;;9.10;50.40;;;;;;5034279;28;19921;-75
2021/04/24 05:11:21;;;;;;;;;;;9.10;50.30;;;;;;5032408;28;19921;-75
2021/04/24 05:13:47;;;;;;;;;;;9.20;50.30;;;;;;5047834;28;19925;-77
2021/04/24 05:16:14;;;;;;;;;;;9.30;50.30;;;;;;5034118;28;19951;-76
2021/04/24 05:18:40;;;;;;;;;;;9.30;50.10;;;;;;5052775;28;19924;-75
2021/04/24 05:21:06;;;;;;;;;;;9.30;50.10;;;;;;5039766;28;20012;-75
2021/04/24 05:23:34;;;;;;;;;;;9.40;50.10;;;;;;5033209;28;19921;-74
2021/04/24 05:26:00;;;;;;;;;;;9.40;50.00;;;;;;5033040;28;19925;-74
2021/04/24 05:28:26;;;;;;;;;;;9.60;50.00;;;;;;5051466;28;19951;-76
2021/04/24 05:30:52;;;;;;;;;;;9.60;49.80;;;;;;5053096;28;19921;-76
2021/04/24 05:33:19;;;;;;;;;;;9.70;49.70;;;;;;5051007;28;20308;-76
2021/04/24 05:35:45;;;;;;;;;;;9.80;49.60;;;;;;5052129;28;20250;-76
2021/04/24 05:38:11;;;;;;;;;;;9.80;49.50;;;;;;5053282;28;20301;-76
2021/04/24 05:40:38;;;;;;;;;;;9.90;49.40;;;;;;5046771;28;20377;-76
2021/04/24 05:43:04;;;;;;;;;;;9.90;49.40;;;;;;5037699;28;19921;-76
2021/04/24 05:45:31;;;;;;;;;;;10.00;48.50;;;;;;5035079;28;19937;-77
2021/04/24 05:47:57;;;;;;;;;;;10.10;48.50;;;;;;5049090;28;19928;-76
2021/04/24 05:50:25;;;;;;;;;;;10.20;48.30;;;;;;5033852;28;19921;-76
2021/04/24 05:52:51;;;;;;;;;;;10.20;48.20;;;;;;5033916;28;19983;-77
2021/04/24 05:55:19;;;;;;;;;;;10.30;48.20;;;;;;5034779;28;19924;-77
2021/04/24 05:57:46;;;;;;;;;;;10.50;48.00;;;;;;5020465;28;19991;-76
2021/04/24 06:00:14;;;;;;;;;;;10.60;47.70;;;;;;5032624;28;19925;-77
2021/04/24 06:02:40;;;;;;;;;;;10.60;47.60;;;;;;5031126;28;19928;-76
2021/04/24 06:05:09;;;;;;;;;;;10.70;47.70;;;;;;5032705;28;20378;-77
2021/04/24 06:07:35;;;;;;;;;;;10.70;47.60;;;;;;5038240;28;19925;-76
2021/04/24 06:10:04;;;;;;;;;;;10.80;47.50;;;;;;5030681;28;20322;-78
2021/04/24 06:12:31;;;;;;;;;;;10.90;47.50;;;;;;5031908;28;20289;-76
2021/04/24 06:14:58;;;;;;;;;;;11.00;47.40;;;;;;5032853;28;19921;-76
2021/04/24 06:17:24;;;;;;;;;;;11.10;47.30;;;;;;5042848;28;19921;-75
2021/04/24 06:19:51;;;;;;;;;;;11.20;47.30;;;;;;5050825;28;19921;-75
2021/04/24 06:22:17;;;;;;;;;;;11.30;47.20;;;;;;5033786;28;20270;-75
2021/04/24 06:24:43;;;;;;;;;;;11.40;47.00;;;;;;5033577;28;19979;-76
2021/04/24 06:27:09;;;;;;;;;;;11.50;46.90;;;;;;5044018;28;19966;-75
2021/04/24 06:29:36;;;;;;;;;;;11.70;46.80;;;;;;5039600;28;19929;-77
2021/04/24 06:32:04;;;;;;;;;;;11.80;46.60;;;;;;5025230;28;19921;-77
2021/04/24 06:34:30;;;;;;;;;;;12.00;46.50;;;;;;5052394;28;19924;-76
2021/04/24 06:36:56;;;;;;;;;;;12.00;46.20;;;;;;5052474;28;19921;-77
2021/04/24 06:39:22;;;;;;;;;;;12.20;46.20;;;;;;5054609;28;19925;-77
2021/04/24 06:41:49;;;;;;;;;;;12.30;46.00;;;;;;5056448;28;19921;-77
2021/04/24 06:44:16;;;;;;;;;;;12.40;45.80;;;;;;5055990;28;19972;-77
2021/04/24 06:46:42;;;;;;;;;;;12.60;45.80;;;;;;5042135;28;19929;-77
2021/04/24 06:49:09;;;;;;;;;;;12.70;45.50;;;;;;5035923;28;19921;-77
2021/04/24 06:51:35;;;;;;;;;;;12.80;45.20;;;;;;5035134;28;19971;-77
2021/04/24 06:54:02;;;;;;;;;;;12.90;45.00;;;;;;5034288;28;19968;-77
2021/04/24 06:56:30;;;;;;;;;;;13.10;44.90;;;;;;5035844;28;19921;-75
2021/04/24 06:58:57;;;;;;;;;;;13.20;44.50;;;;;;5035791;28;19921;-75
2021/04/24 07:01:23;;;;;;;;;;;13.40;44.10;;;;;;5035442;28;19936;-76
2021/04/24 07:03:49;;;;;;;;;;;13.50;43.70;;;;;;5035862;28;19928;-76
2021/04/24 07:06:17;;;;;;;;;;;13.60;43.50;;;;;;5035678;28;20281;-76
2021/04/24 07:08:43;;;;;;;;;;;13.70;43.20;;;;;;5035433;28;19925;-77
2021/04/24 07:11:09;;;;;;;;;;;13.90;43.00;;;;;;5035636;28;20005;-76
2021/04/24 07:13:35;;;;;;;;;;;14.10;42.70;;;;;;5034610;28;19921;-75
2021/04/24 07:16:03;;;;;;;;;;;14.20;42.40;;;;;;5035722;28;19921;-76
2021/04/24 07:18:29;;;;;;;;;;;14.30;42.20;;;;;;5033438;28;19926;-76
2021/04/24 07:20:55;;;;;;;;;;;14.50;42.10;;;;;;5035617;28;20314;-76
2021/04/24 07:23:22;;;;;;;;;;;14.60;41.90;;;;;;5035483;28;19921;-76
2021/04/24 07:25:49;;;;;;;;;;;14.70;41.40;;;;;;5034620;28;20378;-76
2021/04/24 07:28:16;;;;;;;;;;;14.80;41.00;;;;;;5035145;28;20258;-76
2021/04/24 07:30:42;;;;;;;;;;;15.00;40.90;;;;;;5035192;28;20012;-76
2021/04/24 07:33:08;;;;;;;;;;;15.10;40.70;;;;;;5035074;28;19926;-76
2021/04/24 07:35:35;;;;;;;;;;;15.20;40.40;;;;;;5035366;28;19932;-76
2021/04/24 07:38:01;;;;;;;;;;;15.30;40.00;;;;;;5035015;28;19920;-75
2021/04/24 07:40:28;;;;;;;;;;;15.50;39.70;;;;;;5034963;28;19948;-75
2021/04/24 07:42:55;;;;;;;;;;;15.60;39.60;;;;;;5035078;28;19927;-75
2021/04/24 07:45:21;;;;;;;;;;;15.60;39.10;;;;;;5032965;28;19927;-75
2021/04/24 07:47:48;;;;;;;;;;;15.70;39.10;;;;;;5034856;28;19925;-75
2021/04/24 07:50:17;;;;;;;;;;;15.90;39.10;;;;;;5034428;28;20265;-74
2021/04/24 07:52:45;;;;;;;;;;;16.00;39.00;;;;;;5034467;28;19925;-76
2021/04/24 07:55:12;;;;;;;;;;;16.20;38.70;;;;;;5034847;28;20062;-75
2021/04/24 07:57:39;;;;;;;;;;;16.40;38.40;;;;;;5033874;28;19921;-76
2021/04/24 08:00:06;;;;;;;;;;;16.50;37.70;;;;;;5034763;28;19921;-76
2021/04/24 08:02:32;;;;;;;;;;;16.60;37.70;;;;;;5034727;28;19929;-76
2021/04/24 08:04:59;;;;;;;;;;;16.70;37.60;;;;;;5034807;28;19928;-76
2021/04/24 08:07:25;;;;;;;;;;;16.90;37.40;;;;;;5034585;28;19928;-76
2021/04/24 08:09:51;;;;;;;;;;;17.00;37.20;;;;;;5034887;28;20281;-76
2021/04/24 08:12:18;;;;;;;;;;;17.10;37.10;;;;;;5032640;28;19925;-76
2021/04/24 08:14:45;;;;;;;;;;;17.20;36.90;;;;;;5034048;28;19921;-76
2021/04/24 08:17:13;;;;;;;;;;;17.40;36.80;;;;;;5038713;28;19951;-76
2021/04/24 08:19:40;;;;;;;;;;;17.40;36.50;;;;;;5034177;28;19928;-76
2021/04/24 08:22:06;;;;;;;;;;;17.50;36.30;;;;;;5033773;28;19943;-76
2021/04/24 08:24:33;;;;;;;;;;;17.70;36.10;;;;;;5051334;28;19995;-76
2021/04/24 08:26:59;;;;;;;;;;;17.80;35.80;;;;;;5033534;28;19921;-75
2021/04/24 08:29:25;;;;;;;;;;;17.90;35.50;;;;;;5034060;28;19921;-75
2021/04/24 08:31:52;;;;;;;;;;;18.00;35.20;;;;;;5049427;28;19929;-76
2021/04/24 08:34:21;;;;;;;;;;;18.10;35.10;;;;;;5053915;28;19925;-76
2021/04/24 08:36:47;;;;;;;;;;;18.20;34.60;;;;;;5049053;28;19927;-76
2021/04/24 08:39:13;;;;;;;;;;;18.30;34.40;;;;;;5052288;28;20323;-75
2021/04/24 08:41:39;;;;;;;;;;;18.30;34.20;;;;;;5036757;28;19929;-75
2021/04/24 08:44:06;;;;;;;;;;;18.40;33.80;;;;;;5033504;28;19983;-75
2021/04/24 08:46:32;;;;;;;;;;;18.40;33.10;;;;;;5032802;28;19921;-75
2021/04/24 08:49:01;;;;;;;;;;;18.40;33.30;;;;;;5032643;28;20437;-78
2021/04/24 08:51:28;;;;;;;;;;;18.40;33.30;;;;;;5046052;28;19921;-77
2021/04/24 08:53:59;;;;;;;;;;;18.50;32.90;;;;;;5033342;28;19921;-79
2021/04/24 08:56:30;;;;;;;;;;;18.50;32.40;;;;;;5039051;28;20327;-78
2021/04/24 08:58:59;;;;;;;;;;;18.50;32.40;;;;;;5033598;28;19928;-77
2021/04/24 09:01:29;;;;;;;;;;;18.30;32.30;;;;;;5032996;28;19927;-79
2021/04/24 09:03:55;;;;;;;;;;;18.40;32.70;;;;;;5032601;28;19964;-78
2021/04/24 09:06:23;;;;;;;;;;;18.50;32.40;;;;;;5033075;28;19921;-78
2021/04/24 09:08:53;;;;;;;;;;;18.40;31.80;;;;;;5033477;28;20378;-77
2021/04/24 09:11:20;;;;;;;;;;;18.40;31.40;;;;;;5032801;28;20015;-77
2021/04/24 09:13:57;;;;;;;;;;;18.40;32.10;;;;;;5033185;28;20436;-77
2021/04/24 09:16:23;;;;;;;;;;;18.50;32.20;;;;;;5033508;28;19925;-77
2021/04/24 09:18:50;;;;;;;;;;;18.50;32.00;;;;;;5033169;28;19951;-77
2021/04/24 09:21:20;;;;;;;;;;;18.50;31.70;;;;;;5032820;28;20251;-77
2021/04/24 09:23:47;;;;;;;;;;;18.50;31.70;;;;;;5033165;28;19928;-77
2021/04/24 09:26:16;;;;;;;;;;;18.50;31.70;;;;;;5033155;28;19932;-79
2021/04/24 09:28:43;;;;;;;;;;;18.50;32.00;;;;;;5033293;28;19921;-78
2021/04/24 09:31:10;;;;;;;;;;;18.50;31.70;;;;;;5031649;28;20286;-76
2021/04/24 09:33:37;;;;;;;;;;;18.40;31.50;;;;;;5033105;28;19984;-76
2021/04/24 09:36:06;;;;;;;;;;;18.30;31.60;;;;;;5033200;28;19930;-77
2021/04/24 09:38:33;;;;;;;;;;;18.30;31.60;;;;;;5033256;28;20569;-78
2021/04/24 09:41:07;;;;;;;;;;;18.40;31.80;;;;;;5033131;28;19991;-77
2021/04/24 09:43:47;;;;;;;;;;;18.40;31.30;;;;;;5032655;28;19921;-77
2021/04/24 09:46:14;;;;;;;;;;;18.50;31.00;;;;;;5031596;28;19979;-77
2021/04/24 09:48:40;;;;;;;;;;;18.40;30.70;;;;;;5032648;28;19921;-77
2021/04/24 09:51:12;;;;;;;;;;;18.40;30.50;;;;;;5032920;28;19961;-78
2021/04/24 09:53:38;;;;;;;;;;;18.40;30.20;;;;;;5031510;28;19929;-79
2021/04/24 09:56:13;;;;;;;;;;;18.40;29.90;;;;;;5032316;28;19975;-79
2021/04/24 09:58:41;;;;;;;;;;;18.40;29.90;;;;;;5020207;28;20251;-79
2021/04/24 10:01:23;;;;;;;;;;;18.40;30.00;;;;;;5032720;28;19921;-78
2021/04/24 10:03:50;;;;;;;;;;;18.40;30.40;;;;;;5032360;28;19925;-79
2021/04/24 10:06:30;;;;;;;;;;;18.40;30.00;;;;;;5032551;28;19925;-78
2021/04/24 10:09:13;;;;;;;;;;;18.40;29.80;;;;;;5024477;28;19921;-78
2021/04/24 10:11:43;;;;;;;;;;;18.50;29.70;;;;;;5032784;28;20400;-78
2021/04/24 10:14:09;;;;;;;;;;;18.50;29.40;;;;;;5033705;28;19921;-78
2021/04/24 10:16:37;;;;;;;;;;;18.60;29.60;;;;;;5036333;28;19928;-77
2021/04/24 10:19:04;;;;;;;;;;;18.60;29.40;;;;;;5045132;28;19975;-77
2021/04/24 10:21:33;;;;;;;;;;;18.70;29.50;;;;;;5038158;28;20370;-78
2021/04/24 10:24:00;;;;;;;;;;;18.80;29.50;;;;;;5034651;28;19925;-79
2021/04/24 10:26:27;;;;;;;;;;;18.90;29.30;;;;;;5036674;28;19921;-79
2021/04/24 10:28:55;;;;;;;;;;;19.00;28.90;;;;;;5035905;28;19948;-79
2021/04/24 10:31:21;;;;;;;;;;;19.00;28.70;;;;;;5035999;28;19929;-78
2021/04/24 10:33:48;;;;;;;;;;;19.10;28.80;;;;;;5045716;28;19927;-77
2021/04/24 10:36:15;;;;;;;;;;;19.30;29.00;;;;;;5038873;28;19928;-78
2021/04/24 10:38:43;;;;;;;;;;;19.40;28.90;;;;;;5045713;28;19931;-77
2021/04/24 10:41:10;;;;;;;;;;;19.60;28.70;;;;;;5041087;28;19921;-79
2021/04/24 10:43:39;;;;;;;;;;;19.70;28.60;;;;;;5042009;28;19966;-77
2021/04/24 10:46:33;;;;;;;;;;;20.00;28.30;;;;;;5035666;28;19925;-77
2021/04/24 10:49:16;;;;;;;;;;;20.20;27.60;;;;;;5047693;28;19960;-77
2021/04/24 10:52:00;;;;;;;;;;;20.40;27.40;;;;;;5046937;28;20396;-77
2021/04/24 10:54:27;;;;;;;;;;;20.70;27.40;;;;;;5052473;28;20273;-76
2021/04/24 10:56:54;;;;;;;;;;;21.20;27.30;;;;;;5038734;28;19928;-78
2021/04/24 10:59:21;;;;;;;;;;;21.80;27.00;;;;;;5046381;28;19928;-76
2021/04/24 11:02:05;;;;;;;;;;;22.50;26.60;;;;;;5035014;28;20358;-77
2021/04/24 11:04:44;;;;;;;;;;;23.20;26.30;;;;;;5022573;28;19922;-78
2021/04/24 11:07:17;;;;;;;;;;;24.10;25.50;;;;;;5041285;28;19921;-78
2021/04/24 11:09:43;;;;;;;;;;;24.90;24.10;;;;;;5047274;28;19932;-78
2021/04/24 11:12:10;;;;;;;;;;;25.50;23.40;;;;;;5038677;28;20027;-77
2021/04/24 11:14:37;;;;;;;;;;;26.20;22.80;;;;;;5034831;28;19928;-78
2021/04/24 11:17:04;;;;;;;;;;;27.10;22.00;;;;;;5032375;28;20416;-78
2021/04/24 11:19:40;;;;;;;;;;;28.00;21.60;;;;;;5039747;28;19925;-77
2021/04/24 11:22:21;;;;;;;;;;;29.30;20.00;;;;;;5037934;28;19921;-78
2021/04/24 11:24:47;;;;;;;;;;;30.70;19.20;;;;;;5023445;28;20357;-78
2021/04/24 11:27:14;;;;;;;;;;;32.40;18.20;;;;;;5035086;28;19921;-79
2021/04/24 11:29:40;;;;;;;;;;;33.70;16.90;;;;;;5040889;28;20361;-78
2021/04/24 11:32:10;;;;;;;;;;;35.00;16.80;;;;;;5042733;28;19975;-79
2021/04/24 11:34:37;;;;;;;;;;;35.90;15.40;;;;;;5048188;28;19966;-78
2021/04/24 11:37:24;;;;;;;;;;;36.60;14.90;;;;;;5054314;28;20377;-77
2021/04/24 11:40:04;;;;;;;;;;;37.00;14.40;;;;;;5053983;28;19920;-77
2021/04/24 11:42:31;;;;;;;;;;;37.40;14.30;;;;;;5054324;28;19921;-77
2021/04/24 11:44:57;;;;;;;;;;;38.40;13.70;;;;;;5038504;28;19921;-78
2021/04/24 11:47:42;;;;;;;;;;;38.70;13.00;;;;;;5034172;28;19921;-78
2021/04/24 11:50:11;;;;;;;;;;;39.40;12.90;;;;;;5034808;28;19925;-77
2021/04/24 11:52:37;;;;;;;;;;;40.00;12.40;;;;;;5035839;28;19921;-79
2021/04/24 11:55:04;;;;;;;;;;;40.20;12.40;;;;;;5051937;28;19921;-79
2021/04/24 11:57:30;;;;;;;;;;;40.90;11.80;;;;;;5043000;28;19928;-79
2021/04/24 11:59:56;;;;;;;;;;;41.60;11.60;;;;;;5054521;28;19981;-80
2021/04/24 12:02:31;;;;;;;;;;;41.50;10.90;;;;;;5042091;28;20285;-80
2021/04/24 12:05:00;;;;;;;;;;;41.00;11.20;;;;;;5034277;28;19921;-79
2021/04/24 12:07:27;;;;;;;;;;;40.10;11.00;;;;;;5034300;28;19921;-78
2021/04/24 12:09:55;;;;;;;;;;;38.00;11.70;;;;;;5044804;28;19925;-78
2021/04/24 12:12:22;;;;;;;;;;;35.50;12.60;;;;;;5033997;28;19925;-79
2021/04/24 12:14:49;;;;;;;;;;;33.30;13.80;;;;;;5044784;28;19924;-79
2021/04/24 12:17:16;;;;;;;;;;;31.30;14.60;;;;;;5039781;28;19971;-78
2021/04/24 12:19:43;;;;;;;;;;;29.80;15.60;;;;;;5038476;28;20431;-78
2021/04/24 12:22:10;;;;;;;;;;;28.60;16.50;;;;;;5054167;28;19925;-78
2021/04/24 12:24:49;;;;;;;;;;;27.60;17.30;;;;;;5040746;28;19921;-75
2021/04/24 12:27:29;;;;;;;;;;;26.70;18.10;;;;;;5042053;28;19921;-76
2021/04/24 12:29:56;;;;;;;;;;;25.90;18.80;;;;;;5029869;28;19952;-76
2021/04/24 12:32:24;;;;;;;;;;;25.20;20.20;;;;;;5034007;28;19921;-76
2021/04/24 12:34:50;;;;;;;;;;;24.30;20.80;;;;;;5033979;28;19921;-78
2021/04/24 12:37:20;;;;;;;;;;;23.80;20.90;;;;;;5030853;28;19921;-78
2021/04/24 12:40:00;;;;;;;;;;;23.70;21.30;;;;;;5033909;28;19929;-79
2021/04/24 12:42:26;;;;;;;;;;;23.60;21.30;;;;;;5032080;28;19928;-79
2021/04/24 12:44:53;;;;;;;;;;;23.60;21.40;;;;;;5033797;28;19921;-78
2021/04/24 12:47:19;;;;;;;;;;;23.60;21.50;;;;;;5033712;28;19975;-79
2021/04/24 12:49:46;;;;;;;;;;;23.60;21.60;;;;;;5033308;28;19974;-77
2021/04/24 12:52:12;;;;;;;;;;;23.50;21.30;;;;;;5033797;28;19928;-76
2021/04/24 12:54:38;;;;;;;;;;;23.50;21.80;;;;;;5032814;28;19925;-76
2021/04/24 12:57:19;;;;;;;;;;;23.40;21.70;;;;;;5033454;28;19921;-76
2021/04/24 12:59:46;;;;;;;;;;;23.30;21.50;;;;;;5033571;28;19974;-77
2021/04/24 13:02:13;;;;;;;;;;;23.10;21.70;;;;;;5033383;28;19925;-76
2021/04/24 13:04:54;;;;;;;;;;;23.10;21.50;;;;;;5031193;28;19963;-76
2021/04/24 13:07:20;;;;;;;;;;;23.10;21.40;;;;;;5036224;28;19921;-76
2021/04/24 13:09:47;;;;;;;;;;;23.20;21.30;;;;;;5053483;28;19920;-76
2021/04/24 13:12:15;;;;;;;;;;;23.10;21.10;;;;;;5050143;28;19920;-76
2021/04/24 13:14:44;;;;;;;;;;;23.00;21.20;;;;;;5033007;28;19921;-76
2021/04/24 13:17:11;;;;;;;;;;;22.80;21.00;;;;;;5033225;28;19925;-76
2021/04/24 13:19:48;;;;;;;;;;;22.90;21.10;;;;;;5032977;28;19971;-76
2021/04/24 13:22:29;;;;;;;;;;;22.80;21.00;;;;;;5032221;28;19933;-76
2021/04/24 13:24:56;;;;;;;;;;;22.80;21.00;;;;;;5032791;28;19928;-77
2021/04/24 13:27:23;;;;;;;;;;;22.80;20.80;;;;;;5032696;28;19956;-76
2021/04/24 13:29:50;;;;;;;;;;;22.80;20.80;;;;;;5031486;28;20328;-76
2021/04/24 13:32:16;;;;;;;;;;;22.80;21.00;;;;;;5032384;28;20377;-76
2021/04/24 13:34:44;;;;;;;;;;;22.80;21.00;;;;;;5032033;28;19925;-76
2021/04/24 13:37:11;;;;;;;;;;;22.70;21.40;;;;;;5032669;28;19921;-76
2021/04/24 13:39:45;;;;;;;;;;;22.70;21.20;;;;;;5032453;28;20007;-76
2021/04/24 13:42:12;;;;;;;;;;;22.70;21.00;;;;;;5032709;28;19921;-76
2021/04/24 13:44:39;;;;;;;;;;;22.60;21.00;;;;;;5038353;28;19921;-76
2021/04/24 13:47:16;;;;;;;;;;;22.60;21.00;;;;;;5032818;28;19925;-76
2021/04/24 13:49:43;;;;;;;;;;;22.60;21.40;;;;;;5039322;28;19932;-76
2021/04/24 13:52:09;;;;;;;;;;;22.40;21.60;;;;;;5039777;28;19933;-76
2021/04/24 13:54:35;;;;;;;;;;;22.30;21.60;;;;;;5038489;28;19932;-76
2021/04/24 13:57:02;;;;;;;;;;;22.30;21.40;;;;;;5042258;28;19928;-77
2021/04/24 13:59:28;;;;;;;;;;;22.30;21.50;;;;;;5049133;28;19925;-77
2021/04/24 14:01:54;;;;;;;;;;;22.30;21.70;;;;;;5047378;28;20019;-76
2021/04/24 14:04:21;;;;;;;;;;;22.30;21.60;;;;;;5039087;28;19921;-77
2021/04/24 14:06:48;;;;;;;;;;;22.20;21.80;;;;;;5053276;28;19920;-77
2021/04/24 14:09:14;;;;;;;;;;;22.20;21.80;;;;;;5040498;28;20340;-78
2021/04/24 14:11:41;;;;;;;;;;;22.30;21.70;;;;;;5058057;28;19943;-77
2021/04/24 14:14:07;;;;;;;;;;;22.20;21.70;;;;;;5050821;28;19928;-77
2021/04/24 14:16:35;;;;;;;;;;;22.20;21.80;;;;;;5039157;28;19921;-77
2021/04/24 14:19:05;;;;;;;;;;;22.30;21.90;;;;;;5047219;28;19921;-77
2021/04/24 14:21:33;;;;;;;;;;;22.30;22.00;;;;;;5042516;28;19932;-77